sensor_id;sensor_type;location;lat;lon;timestamp;P1;durP1;ratioP1;P2;durP2;ratioP2
41943;SDS011;27636;52.610;13.244;2022-11-03T00:01:36;8.35;;;4.25;;
41943;SDS011;27636;52.610;13.244;2022-11-03T00:06:43;10.98;;;4.68;;
41943;SDS011;27636;52.610;13.244;2022-11-03T00:11:48;11.00;;;4.93;;
41943;SDS011;27636;52.610;13.244;2022-11-03T00:16:52;9.83;;;4.00;;
41943;SDS011;27636;52.610;13.244;2022-11-03T00:21:57;12.02;;;4.90;;
41943;SDS011;27636;52.610;13.244;2022-11-03T00:27:01;20.45;;;4.97;;
41943;SDS011;27636;52.610;13.244;2022-11-03T00:32:04;11.23;;;4.28;;
41943;SDS011;27636;52.610;13.244;2022-11-03T00:37:09;7.60;;;3.20;;
41943;SDS011;27636;52.610;13.244;2022-11-03T00:42:12;14.80;;;4.43;;
41943;SDS011;27636;52.610;13.244;2022-11-03T00:47:15;12.40;;;4.22;;
41943;SDS011;27636;52.610;13.244;2022-11-03T00:52:24;7.47;;;3.10;;
41943;SDS011;27636;52.610;13.244;2022-11-03T00:57:27;9.10;;;4.20;;
41943;SDS011;27636;52.610;13.244;2022-11-03T01:02:30;8.57;;;4.22;;
41943;SDS011;27636;52.610;13.244;2022-11-03T01:07:35;7.80;;;3.63;;
41943;SDS011;27636;52.610;13.244;2022-11-03T01:12:38;11.27;;;3.70;;
41943;SDS011;27636;52.610;13.244;2022-11-03T01:17:41;11.27;;;4.18;;
41943;SDS011;27636;52.610;13.244;2022-11-03T01:22:46;10.93;;;4.07;;
41943;SDS011;27636;52.610;13.244;2022-11-03T01:27:49;11.65;;;3.63;;
41943;SDS011;27636;52.610;13.244;2022-11-03T01:32:52;14.70;;;3.72;;
41943;SDS011;27636;52.610;13.244;2022-11-03T01:37:57;11.30;;;3.35;;
41943;SDS011;27636;52.610;13.244;2022-11-03T01:43:16;11.20;;;3.37;;
41943;SDS011;27636;52.610;13.244;2022-11-03T01:48:19;8.50;;;3.40;;
41943;SDS011;27636;52.610;13.244;2022-11-03T01:58:31;7.65;;;3.35;;
41943;SDS011;27636;52.610;13.244;2022-11-03T02:03:39;6.13;;;3.38;;
41943;SDS011;27636;52.610;13.244;2022-11-03T02:08:47;7.88;;;3.60;;
41943;SDS011;27636;52.610;13.244;2022-11-03T02:13:53;10.88;;;3.78;;
41943;SDS011;27636;52.610;13.244;2022-11-03T02:18:57;10.90;;;3.33;;
41943;SDS011;27636;52.610;13.244;2022-11-03T02:24:06;9.30;;;3.72;;
41943;SDS011;27636;52.610;13.244;2022-11-03T02:29:16;12.05;;;3.28;;
41943;SDS011;27636;52.610;13.244;2022-11-03T02:34:20;9.18;;;3.60;;
41943;SDS011;27636;52.610;13.244;2022-11-03T02:39:30;6.35;;;2.67;;
41943;SDS011;27636;52.610;13.244;2022-11-03T02:44:39;6.35;;;2.67;;
41943;SDS011;27636;52.610;13.244;2022-11-03T02:49:45;10.77;;;3.38;;
41943;SDS011;27636;52.610;13.244;2022-11-03T02:54:49;6.70;;;2.20;;
41943;SDS011;27636;52.610;13.244;2022-11-03T02:59:55;16.73;;;3.38;;
41943;SDS011;27636;52.610;13.244;2022-11-03T03:05:07;9.27;;;3.45;;
41943;SDS011;27636;52.610;13.244;2022-11-03T03:10:13;14.30;;;3.55;;
41943;SDS011;27636;52.610;13.244;2022-11-03T03:15:21;4.63;;;2.47;;
41943;SDS011;27636;52.610;13.244;2022-11-03T03:20:30;10.30;;;3.42;;
41943;SDS011;27636;52.610;13.244;2022-11-03T03:25:37;8.57;;;2.92;;
41943;SDS011;27636;52.610;13.244;2022-11-03T03:30:44;8.80;;;2.75;;
41943;SDS011;27636;52.610;13.244;2022-11-03T03:35:48;31.23;;;2.92;;
41943;SDS011;27636;52.610;13.244;2022-11-03T03:40:54;6.82;;;2.28;;
41943;SDS011;27636;52.610;13.244;2022-11-03T03:46:02;5.13;;;2.53;;
41943;SDS011;27636;52.610;13.244;2022-11-03T03:51:07;7.00;;;2.60;;
41943;SDS011;27636;52.610;13.244;2022-11-03T03:56:12;14.95;;;3.60;;
41943;SDS011;27636;52.610;13.244;2022-11-03T04:01:16;6.45;;;3.05;;
41943;SDS011;27636;52.610;13.244;2022-11-03T04:06:20;5.05;;;2.40;;
41943;SDS011;27636;52.610;13.244;2022-11-03T04:11:23;7.60;;;2.72;;
41943;SDS011;27636;52.610;13.244;2022-11-03T04:16:46;8.88;;;2.78;;
41943;SDS011;27636;52.610;13.244;2022-11-03T04:22:08;8.80;;;3.35;;
41943;SDS011;27636;52.610;13.244;2022-11-03T04:27:25;7.07;;;3.10;;
41943;SDS011;27636;52.610;13.244;2022-11-03T04:32:32;7.82;;;3.25;;
41943;SDS011;27636;52.610;13.244;2022-11-03T04:37:36;7.10;;;3.22;;
41943;SDS011;27636;52.610;13.244;2022-11-03T04:42:39;11.50;;;3.20;;
41943;SDS011;27636;52.610;13.244;2022-11-03T04:47:44;8.82;;;3.42;;
41943;SDS011;27636;52.610;13.244;2022-11-03T04:52:47;6.10;;;2.30;;
41943;SDS011;27636;52.610;13.244;2022-11-03T04:57:53;12.27;;;3.60;;
41943;SDS011;27636;52.610;13.244;2022-11-03T05:03:01;13.82;;;3.42;;
41943;SDS011;27636;52.610;13.244;2022-11-03T05:08:04;10.52;;;2.50;;
41943;SDS011;27636;52.610;13.244;2022-11-03T05:13:14;13.45;;;3.03;;
41943;SDS011;27636;52.610;13.244;2022-11-03T05:18:23;12.32;;;3.75;;
41943;SDS011;27636;52.610;13.244;2022-11-03T05:23:30;7.05;;;2.83;;
41943;SDS011;27636;52.610;13.244;2022-11-03T05:28:39;10.85;;;3.13;;
41943;SDS011;27636;52.610;13.244;2022-11-03T05:33:47;17.23;;;3.45;;
41943;SDS011;27636;52.610;13.244;2022-11-03T05:38:53;11.15;;;3.03;;
41943;SDS011;27636;52.610;13.244;2022-11-03T05:44:02;7.22;;;3.35;;
41943;SDS011;27636;52.610;13.244;2022-11-03T05:49:27;5.65;;;2.65;;
41943;SDS011;27636;52.610;13.244;2022-11-03T05:54:31;10.48;;;3.03;;
41943;SDS011;27636;52.610;13.244;2022-11-03T06:04:41;9.75;;;3.58;;
41943;SDS011;27636;52.610;13.244;2022-11-03T06:09:44;10.10;;;2.33;;
41943;SDS011;27636;52.610;13.244;2022-11-03T06:14:47;14.13;;;4.30;;
41943;SDS011;27636;52.610;13.244;2022-11-03T06:19:52;6.70;;;2.95;;
41943;SDS011;27636;52.610;13.244;2022-11-03T06:24:58;9.60;;;3.30;;
41943;SDS011;27636;52.610;13.244;2022-11-03T06:30:11;7.65;;;3.22;;
41943;SDS011;27636;52.610;13.244;2022-11-03T06:35:24;11.20;;;3.55;;
41943;SDS011;27636;52.610;13.244;2022-11-03T06:40:29;9.77;;;3.00;;
41943;SDS011;27636;52.610;13.244;2022-11-03T06:45:36;11.05;;;4.10;;
41943;SDS011;27636;52.610;13.244;2022-11-03T06:50:40;10.50;;;3.40;;
41943;SDS011;27636;52.610;13.244;2022-11-03T06:55:46;10.80;;;3.13;;
41943;SDS011;27636;52.610;13.244;2022-11-03T07:00:50;11.25;;;3.30;;
41943;SDS011;27636;52.610;13.244;2022-11-03T07:05:56;12.63;;;3.47;;
41943;SDS011;27636;52.610;13.244;2022-11-03T07:11:02;9.23;;;4.25;;
41943;SDS011;27636;52.610;13.244;2022-11-03T07:16:12;16.35;;;4.10;;
41943;SDS011;27636;52.610;13.244;2022-11-03T07:21:27;15.93;;;5.13;;
41943;SDS011;27636;52.610;13.244;2022-11-03T07:26:34;13.25;;;5.20;;
41943;SDS011;27636;52.610;13.244;2022-11-03T07:31:37;12.00;;;4.57;;
41943;SDS011;27636;52.610;13.244;2022-11-03T07:36:42;14.82;;;4.40;;
41943;SDS011;27636;52.610;13.244;2022-11-03T07:46:50;15.23;;;5.05;;
41943;SDS011;27636;52.610;13.244;2022-11-03T07:51:54;14.38;;;5.63;;
41943;SDS011;27636;52.610;13.244;2022-11-03T07:56:59;11.10;;;5.75;;
41943;SDS011;27636;52.610;13.244;2022-11-03T08:02:12;13.20;;;5.93;;
41943;SDS011;27636;52.610;13.244;2022-11-03T08:07:28;12.88;;;4.47;;
41943;SDS011;27636;52.610;13.244;2022-11-03T08:12:31;12.40;;;4.93;;
41943;SDS011;27636;52.610;13.244;2022-11-03T08:17:34;14.20;;;4.75;;
41943;SDS011;27636;52.610;13.244;2022-11-03T08:22:38;10.45;;;4.80;;
41943;SDS011;27636;52.610;13.244;2022-11-03T08:27:51;10.48;;;4.40;;
41943;SDS011;27636;52.610;13.244;2022-11-03T08:32:54;10.95;;;3.00;;
41943;SDS011;27636;52.610;13.244;2022-11-03T08:37:59;9.65;;;2.80;;
41943;SDS011;27636;52.610;13.244;2022-11-03T08:43:02;5.83;;;2.87;;
41943;SDS011;27636;52.610;13.244;2022-11-03T08:48:06;8.95;;;2.90;;
41943;SDS011;27636;52.610;13.244;2022-11-03T08:53:11;7.15;;;2.50;;
41943;SDS011;27636;52.610;13.244;2022-11-03T08:58:15;9.30;;;2.63;;
41943;SDS011;27636;52.610;13.244;2022-11-03T09:03:18;12.13;;;2.63;;
41943;SDS011;27636;52.610;13.244;2022-11-03T09:08:22;7.00;;;2.60;;
41943;SDS011;27636;52.610;13.244;2022-11-03T09:13:45;10.25;;;2.15;;
41943;SDS011;27636;52.610;13.244;2022-11-03T09:18:49;6.45;;;1.95;;
41943;SDS011;27636;52.610;13.244;2022-11-03T09:23:53;8.82;;;1.90;;
41943;SDS011;27636;52.610;13.244;2022-11-03T09:28:56;10.48;;;2.45;;
41943;SDS011;27636;52.610;13.244;2022-11-03T09:34:00;9.30;;;2.00;;
41943;SDS011;27636;52.610;13.244;2022-11-03T09:39:04;8.27;;;2.28;;
41943;SDS011;27636;52.610;13.244;2022-11-03T09:44:08;6.25;;;1.77;;
41943;SDS011;27636;52.610;13.244;2022-11-03T09:49:12;7.72;;;1.90;;
41943;SDS011;27636;52.610;13.244;2022-11-03T09:54:18;6.35;;;2.15;;
41943;SDS011;27636;52.610;13.244;2022-11-03T09:59:22;9.40;;;1.65;;
41943;SDS011;27636;52.610;13.244;2022-11-03T10:04:26;6.75;;;1.98;;
41943;SDS011;27636;52.610;13.244;2022-11-03T10:09:31;4.70;;;1.55;;
41943;SDS011;27636;52.610;13.244;2022-11-03T10:14:35;6.43;;;2.42;;
41943;SDS011;27636;52.610;13.244;2022-11-03T10:19:39;13.38;;;2.30;;
41943;SDS011;27636;52.610;13.244;2022-11-03T10:24:43;6.93;;;1.90;;
41943;SDS011;27636;52.610;13.244;2022-11-03T10:30:02;5.25;;;2.88;;
41943;SDS011;27636;52.610;13.244;2022-11-03T10:40:36;9.95;;;1.58;;
41943;SDS011;27636;52.610;13.244;2022-11-03T10:46:07;4.18;;;1.50;;
41943;SDS011;27636;52.610;13.244;2022-11-03T10:51:33;12.73;;;3.25;;
41943;SDS011;27636;52.610;13.244;2022-11-03T10:56:38;6.93;;;1.83;;
41943;SDS011;27636;52.610;13.244;2022-11-03T11:01:42;6.18;;;1.92;;
41943;SDS011;27636;52.610;13.244;2022-11-03T11:06:45;5.00;;;2.13;;
41943;SDS011;27636;52.610;13.244;2022-11-03T11:11:59;5.43;;;1.98;;
41943;SDS011;27636;52.610;13.244;2022-11-03T11:17:04;4.60;;;1.85;;
41943;SDS011;27636;52.610;13.244;2022-11-03T11:22:11;8.10;;;1.85;;
41943;SDS011;27636;52.610;13.244;2022-11-03T11:33:16;4.63;;;2.97;;
41943;SDS011;27636;52.610;13.244;2022-11-03T11:38:44;6.15;;;1.80;;
41943;SDS011;27636;52.610;13.244;2022-11-03T11:49:43;7.00;;;2.00;;
41943;SDS011;27636;52.610;13.244;2022-11-03T11:54:46;6.33;;;2.13;;
41943;SDS011;27636;52.610;13.244;2022-11-03T11:59:49;9.82;;;2.00;;
41943;SDS011;27636;52.610;13.244;2022-11-03T12:04:56;8.10;;;1.83;;
41943;SDS011;27636;52.610;13.244;2022-11-03T12:10:06;10.77;;;2.30;;
41943;SDS011;27636;52.610;13.244;2022-11-03T12:20:52;4.30;;;1.50;;
41943;SDS011;27636;52.610;13.244;2022-11-03T12:25:55;7.35;;;1.80;;
41943;SDS011;27636;52.610;13.244;2022-11-03T12:30:58;7.10;;;1.80;;
41943;SDS011;27636;52.610;13.244;2022-11-03T12:36:08;7.72;;;2.15;;
41943;SDS011;27636;52.610;13.244;2022-11-03T12:41:12;7.20;;;2.20;;
41943;SDS011;27636;52.610;13.244;2022-11-03T12:46:24;6.55;;;1.42;;
41943;SDS011;27636;52.610;13.244;2022-11-03T12:51:28;6.38;;;1.80;;
41943;SDS011;27636;52.610;13.244;2022-11-03T12:56:31;6.57;;;1.63;;
41943;SDS011;27636;52.610;13.244;2022-11-03T13:01:35;8.65;;;1.90;;
41943;SDS011;27636;52.610;13.244;2022-11-03T13:06:40;8.98;;;1.92;;
41943;SDS011;27636;52.610;13.244;2022-11-03T13:11:43;5.33;;;1.80;;
41943;SDS011;27636;52.610;13.244;2022-11-03T13:17:05;4.47;;;1.75;;
41943;SDS011;27636;52.610;13.244;2022-11-03T13:22:10;9.98;;;2.00;;
41943;SDS011;27636;52.610;13.244;2022-11-03T13:27:13;4.88;;;1.58;;
41943;SDS011;27636;52.610;13.244;2022-11-03T13:32:16;6.47;;;1.75;;
41943;SDS011;27636;52.610;13.244;2022-11-03T13:37:21;4.45;;;1.33;;
41943;SDS011;27636;52.610;13.244;2022-11-03T13:42:25;7.65;;;1.90;;
41943;SDS011;27636;52.610;13.244;2022-11-03T13:47:28;7.90;;;1.63;;
41943;SDS011;27636;52.610;13.244;2022-11-03T13:52:52;8.25;;;2.00;;
41943;SDS011;27636;52.610;13.244;2022-11-03T13:57:57;8.88;;;1.63;;
41943;SDS011;27636;52.610;13.244;2022-11-03T14:03:20;4.00;;;1.48;;
41943;SDS011;27636;52.610;13.244;2022-11-03T14:08:44;5.32;;;1.98;;
41943;SDS011;27636;52.610;13.244;2022-11-03T14:13:48;7.05;;;2.17;;
41943;SDS011;27636;52.610;13.244;2022-11-03T14:18:52;5.60;;;2.10;;
41943;SDS011;27636;52.610;13.244;2022-11-03T14:23:57;6.70;;;2.38;;
41943;SDS011;27636;52.610;13.244;2022-11-03T14:29:00;15.03;;;3.30;;
41943;SDS011;27636;52.610;13.244;2022-11-03T14:34:03;11.52;;;3.15;;
41943;SDS011;27636;52.610;13.244;2022-11-03T14:39:08;13.32;;;3.88;;
41943;SDS011;27636;52.610;13.244;2022-11-03T14:44:11;12.83;;;4.30;;
41943;SDS011;27636;52.610;13.244;2022-11-03T14:49:14;8.10;;;2.22;;
41943;SDS011;27636;52.610;13.244;2022-11-03T14:54:18;9.43;;;2.95;;
41943;SDS011;27636;52.610;13.244;2022-11-03T14:59:23;10.40;;;2.80;;
41943;SDS011;27636;52.610;13.244;2022-11-03T15:04:27;10.88;;;2.72;;
41943;SDS011;27636;52.610;13.244;2022-11-03T15:09:31;9.18;;;2.28;;
41943;SDS011;27636;52.610;13.244;2022-11-03T15:14:35;4.85;;;2.47;;
41943;SDS011;27636;52.610;13.244;2022-11-03T15:19:38;5.35;;;1.85;;
41943;SDS011;27636;52.610;13.244;2022-11-03T15:24:42;17.48;;;3.22;;
41943;SDS011;27636;52.610;13.244;2022-11-03T15:30:06;6.40;;;1.92;;
41943;SDS011;27636;52.610;13.244;2022-11-03T15:35:10;5.60;;;1.93;;
41943;SDS011;27636;52.610;13.244;2022-11-03T15:40:15;11.52;;;2.55;;
41943;SDS011;27636;52.610;13.244;2022-11-03T15:45:19;7.80;;;2.58;;
41943;SDS011;27636;52.610;13.244;2022-11-03T15:50:22;9.90;;;2.50;;
41943;SDS011;27636;52.610;13.244;2022-11-03T15:55:26;7.57;;;2.55;;
41943;SDS011;27636;52.610;13.244;2022-11-03T16:00:30;9.80;;;2.73;;
41943;SDS011;27636;52.610;13.244;2022-11-03T16:05:33;7.28;;;3.17;;
41943;SDS011;27636;52.610;13.244;2022-11-03T16:10:38;9.77;;;2.72;;
41943;SDS011;27636;52.610;13.244;2022-11-03T16:15:51;6.63;;;2.65;;
41943;SDS011;27636;52.610;13.244;2022-11-03T16:20:56;7.88;;;2.90;;
41943;SDS011;27636;52.610;13.244;2022-11-03T16:26:00;9.80;;;3.05;;
41943;SDS011;27636;52.610;13.244;2022-11-03T16:31:05;9.73;;;2.92;;
41943;SDS011;27636;52.610;13.244;2022-11-03T16:36:08;16.10;;;3.50;;
41943;SDS011;27636;52.610;13.244;2022-11-03T16:41:13;6.60;;;2.70;;
41943;SDS011;27636;52.610;13.244;2022-11-03T16:46:17;9.52;;;3.28;;
41943;SDS011;27636;52.610;13.244;2022-11-03T16:51:20;8.18;;;2.40;;
41943;SDS011;27636;52.610;13.244;2022-11-03T16:56:25;9.45;;;3.22;;
41943;SDS011;27636;52.610;13.244;2022-11-03T17:01:28;11.03;;;2.90;;
41943;SDS011;27636;52.610;13.244;2022-11-03T17:06:31;6.43;;;2.70;;
41943;SDS011;27636;52.610;13.244;2022-11-03T17:11:35;6.72;;;2.65;;
41943;SDS011;27636;52.610;13.244;2022-11-03T17:16:39;11.10;;;3.73;;
41943;SDS011;27636;52.610;13.244;2022-11-03T17:21:49;11.20;;;2.78;;
41943;SDS011;27636;52.610;13.244;2022-11-03T17:26:54;8.23;;;3.08;;
41943;SDS011;27636;52.610;13.244;2022-11-03T17:32:00;10.43;;;3.30;;
41943;SDS011;27636;52.610;13.244;2022-11-03T17:37:04;12.57;;;2.63;;
41943;SDS011;27636;52.610;13.244;2022-11-03T17:42:15;9.25;;;2.75;;
41943;SDS011;27636;52.610;13.244;2022-11-03T17:47:20;6.82;;;2.72;;
41943;SDS011;27636;52.610;13.244;2022-11-03T17:52:25;12.10;;;3.97;;
41943;SDS011;27636;52.610;13.244;2022-11-03T17:57:31;7.13;;;2.70;;
41943;SDS011;27636;52.610;13.244;2022-11-03T18:02:35;11.80;;;3.13;;
41943;SDS011;27636;52.610;13.244;2022-11-03T18:07:41;10.90;;;2.65;;
41943;SDS011;27636;52.610;13.244;2022-11-03T18:12:46;7.65;;;2.85;;
41943;SDS011;27636;52.610;13.244;2022-11-03T18:18:11;10.85;;;2.63;;
41943;SDS011;27636;52.610;13.244;2022-11-03T18:23:17;9.00;;;2.83;;
41943;SDS011;27636;52.610;13.244;2022-11-03T18:28:23;6.22;;;2.65;;
41943;SDS011;27636;52.610;13.244;2022-11-03T18:33:28;8.60;;;2.97;;
41943;SDS011;27636;52.610;13.244;2022-11-03T18:38:33;7.70;;;2.72;;
41943;SDS011;27636;52.610;13.244;2022-11-03T18:43:40;8.95;;;3.10;;
41943;SDS011;27636;52.610;13.244;2022-11-03T18:48:43;5.75;;;2.60;;
41943;SDS011;27636;52.610;13.244;2022-11-03T18:53:47;7.40;;;3.08;;
41943;SDS011;27636;52.610;13.244;2022-11-03T18:58:52;5.57;;;2.45;;
41943;SDS011;27636;52.610;13.244;2022-11-03T19:03:57;7.60;;;3.00;;
41943;SDS011;27636;52.610;13.244;2022-11-03T19:09:00;6.32;;;3.03;;
41943;SDS011;27636;52.610;13.244;2022-11-03T19:14:05;6.45;;;3.40;;
41943;SDS011;27636;52.610;13.244;2022-11-03T19:19:10;7.97;;;3.47;;
41943;SDS011;27636;52.610;13.244;2022-11-03T19:24:13;9.20;;;3.38;;
41943;SDS011;27636;52.610;13.244;2022-11-03T19:29:26;8.23;;;3.38;;
41943;SDS011;27636;52.610;13.244;2022-11-03T19:34:30;6.68;;;2.97;;
41943;SDS011;27636;52.610;13.244;2022-11-03T19:39:37;8.90;;;3.17;;
41943;SDS011;27636;52.610;13.244;2022-11-03T19:44:43;9.15;;;3.38;;
41943;SDS011;27636;52.610;13.244;2022-11-03T19:49:46;10.17;;;3.10;;
41943;SDS011;27636;52.610;13.244;2022-11-03T19:54:49;8.15;;;3.42;;
41943;SDS011;27636;52.610;13.244;2022-11-03T19:59:54;9.77;;;3.05;;
41943;SDS011;27636;52.610;13.244;2022-11-03T20:05:00;9.38;;;3.13;;
41943;SDS011;27636;52.610;13.244;2022-11-03T20:10:04;7.43;;;3.08;;
41943;SDS011;27636;52.610;13.244;2022-11-03T20:15:13;13.27;;;3.73;;
41943;SDS011;27636;52.610;13.244;2022-11-03T20:20:18;11.05;;;3.40;;
41943;SDS011;27636;52.610;13.244;2022-11-03T20:25:24;17.25;;;4.43;;
41943;SDS011;27636;52.610;13.244;2022-11-03T20:35:33;7.53;;;3.47;;
41943;SDS011;27636;52.610;13.244;2022-11-03T20:40:38;14.50;;;4.50;;
41943;SDS011;27636;52.610;13.244;2022-11-03T20:45:44;14.93;;;4.07;;
41943;SDS011;27636;52.610;13.244;2022-11-03T20:50:47;14.30;;;4.13;;
41943;SDS011;27636;52.610;13.244;2022-11-03T20:55:51;9.85;;;4.10;;
41943;SDS011;27636;52.610;13.244;2022-11-03T21:00:55;9.10;;;3.72;;
41943;SDS011;27636;52.610;13.244;2022-11-03T21:05:59;10.25;;;3.55;;
41943;SDS011;27636;52.610;13.244;2022-11-03T21:11:04;15.43;;;3.45;;
41943;SDS011;27636;52.610;13.244;2022-11-03T21:16:28;8.40;;;3.33;;
41943;SDS011;27636;52.610;13.244;2022-11-03T21:21:51;11.48;;;4.00;;
41943;SDS011;27636;52.610;13.244;2022-11-03T21:26:54;11.95;;;4.38;;
41943;SDS011;27636;52.610;13.244;2022-11-03T21:31:58;11.05;;;4.03;;
41943;SDS011;27636;52.610;13.244;2022-11-03T21:37:01;14.15;;;4.45;;
41943;SDS011;27636;52.610;13.244;2022-11-03T21:42:07;8.50;;;3.80;;
41943;SDS011;27636;52.610;13.244;2022-11-03T21:47:41;13.60;;;4.35;;
41943;SDS011;27636;52.610;13.244;2022-11-03T21:53:04;10.77;;;4.50;;
41943;SDS011;27636;52.610;13.244;2022-11-03T21:58:08;14.38;;;4.22;;
41943;SDS011;27636;52.610;13.244;2022-11-03T22:03:13;12.85;;;4.68;;
41943;SDS011;27636;52.610;13.244;2022-11-03T22:08:16;12.40;;;5.13;;
41943;SDS011;27636;52.610;13.244;2022-11-03T22:13:20;9.88;;;4.32;;
41943;SDS011;27636;52.610;13.244;2022-11-03T22:18:24;16.35;;;5.03;;
41943;SDS011;27636;52.610;13.244;2022-11-03T22:23:27;17.25;;;5.15;;
41943;SDS011;27636;52.610;13.244;2022-11-03T22:28:49;11.95;;;4.57;;
41943;SDS011;27636;52.610;13.244;2022-11-03T22:34:14;9.68;;;4.43;;
41943;SDS011;27636;52.610;13.244;2022-11-03T22:39:36;18.05;;;5.85;;
41943;SDS011;27636;52.610;13.244;2022-11-03T22:44:58;15.00;;;5.10;;
41943;SDS011;27636;52.610;13.244;2022-11-03T22:50:21;17.48;;;5.32;;
41943;SDS011;27636;52.610;13.244;2022-11-03T22:55:24;12.83;;;5.30;;
41943;SDS011;27636;52.610;13.244;2022-11-03T23:00:28;9.68;;;4.75;;
41943;SDS011;27636;52.610;13.244;2022-11-03T23:05:32;10.30;;;4.97;;
41943;SDS011;27636;52.610;13.244;2022-11-03T23:10:35;14.23;;;4.93;;
41943;SDS011;27636;52.610;13.244;2022-11-03T23:15:39;15.65;;;5.35;;
41943;SDS011;27636;52.610;13.244;2022-11-03T23:20:46;13.40;;;4.47;;
41943;SDS011;27636;52.610;13.244;2022-11-03T23:26:08;12.55;;;5.05;;
41943;SDS011;27636;52.610;13.244;2022-11-03T23:31:12;12.80;;;4.43;;
41943;SDS011;27636;52.610;13.244;2022-11-03T23:36:17;13.57;;;5.13;;
41943;SDS011;27636;52.610;13.244;2022-11-03T23:41:20;13.90;;;5.60;;
41943;SDS011;27636;52.610;13.244;2022-11-03T23:46:24;14.52;;;5.57;;
41943;SDS011;27636;52.610;13.244;2022-11-03T23:51:49;11.87;;;5.50;;
41943;SDS011;27636;52.610;13.244;2022-11-03T23:56:53;14.80;;;6.07;;
